createdAt,value
2022-12-29T00:03:17.902Z,7.48
2022-12-29T00:09:02.404Z,7.49
2022-12-29T00:20:41.968Z,7.47
2022-12-29T00:26:08.225Z,7.42
2022-12-29T00:32:01.466Z,7.38
2022-12-29T00:44:24.566Z,7.33
2022-12-29T00:50:31.368Z,7.33
2022-12-29T01:03:18.528Z,7.35
2022-12-29T01:09:21.383Z,7.35
2022-12-29T01:15:05.455Z,7.34
2022-12-29T01:21:19.787Z,7.33
2022-12-29T01:27:24.152Z,7.33
2022-12-29T01:33:14.177Z,7.32
2022-12-29T01:40:01.862Z,7.32
2022-12-29T01:53:22.791Z,7.34
2022-12-29T01:59:01.156Z,7.33
2022-12-29T02:04:35.449Z,7.27
2022-12-29T02:10:52.806Z,7.25
2022-12-29T02:17:20.062Z,7.22
2022-12-29T02:30:46.962Z,7.20
2022-12-29T02:38:14.972Z,7.17
2022-12-29T02:45:22.473Z,7.20
2022-12-29T02:51:58.327Z,7.26
2022-12-29T03:05:13.083Z,7.33
2022-12-29T03:14:10.180Z,7.13
2022-12-29T03:20:40.011Z,7.09
2022-12-29T03:26:41.285Z,6.98
2022-12-29T03:32:56.314Z,6.91
2022-12-29T03:39:13.284Z,6.81
2022-12-29T03:45:20.427Z,6.74
2022-12-29T03:51:17.416Z,6.66
2022-12-29T03:57:41.885Z,6.61
2022-12-29T04:03:32.395Z,6.55
2022-12-29T04:09:10.535Z,6.44
2022-12-29T04:14:43.604Z,6.37
2022-12-29T04:20:55.913Z,6.38
2022-12-29T04:27:05.810Z,6.40
2022-12-29T04:33:45.288Z,6.42
2022-12-29T04:39:38.770Z,6.37
2022-12-29T04:45:35.227Z,6.32
2022-12-29T04:51:59.333Z,6.28
2022-12-29T04:58:22.382Z,6.27
2022-12-29T05:04:38.245Z,6.33
2022-12-29T05:10:45.320Z,6.41
2022-12-29T05:17:09.549Z,6.51
2022-12-29T05:23:23.905Z,6.53
2022-12-29T05:29:48.173Z,6.49
2022-12-29T05:35:34.269Z,6.43
2022-12-29T05:42:08.324Z,6.35
2022-12-29T06:03:15.589Z,6.11
2022-12-29T06:09:49.794Z,6.03
2022-12-29T06:16:15.406Z,5.95
2022-12-29T06:29:41.818Z,5.80
2022-12-29T06:49:55.181Z,5.85
2022-12-29T06:56:34.106Z,6.05
2022-12-29T07:02:38.589Z,6.14
2022-12-29T07:09:03.102Z,6.34
2022-12-29T07:15:18.104Z,6.43
2022-12-29T07:21:33.419Z,6.52
2022-12-29T07:27:57.678Z,6.59
2022-12-29T07:54:36.768Z,6.49
2022-12-29T08:01:01.098Z,6.44
2022-12-29T08:07:09.133Z,6.38
2022-12-29T08:32:58.868Z,7.42
2022-12-29T08:39:23.555Z,7.71
2022-12-29T08:45:11.414Z,7.96
2022-12-29T08:51:35.752Z,8.20
2022-12-29T08:58:00.689Z,8.44
2022-12-29T09:04:27.819Z,8.68
2022-12-29T09:10:14.266Z,8.90
2022-12-29T09:16:33.539Z,9.09
2022-12-29T09:22:42.844Z,9.23
2022-12-29T09:29:07.397Z,9.36
2022-12-29T09:35:31.942Z,9.51
2022-12-29T09:41:47.378Z,9.64
2022-12-29T09:48:12.180Z,9.81
2022-12-29T09:54:29.508Z,10.16
2022-12-29T10:00:39.395Z,10.35
2022-12-29T10:26:54.443Z,11.05
2022-12-29T10:40:17.006Z,11.60
2022-12-29T10:45:41.026Z,11.84
2022-12-29T10:51:49.047Z,12.04
2022-12-29T11:11:43.566Z,12.42
2022-12-29T11:23:57.000Z,12.64
2022-12-29T11:30:16.488Z,12.66
2022-12-29T11:36:33.273Z,12.66
2022-12-29T11:42:19.346Z,12.68
2022-12-29T11:47:44.901Z,12.76
2022-12-29T12:00:45.993Z,12.83
2022-12-29T12:05:11.126Z,12.77
2022-12-29T12:07:20.879Z,12.89
2022-12-29T12:12:58.098Z,13.01
2022-12-29T12:18:53.523Z,13.04
2022-12-29T12:38:35.518Z,13.00
2022-12-29T12:44:12.483Z,12.98
2022-12-29T12:49:41.581Z,13.00
2022-12-29T12:55:45.645Z,13.01
2022-12-29T13:01:50.071Z,13.06
2022-12-29T13:08:38.495Z,13.08
2022-12-29T13:14:57.966Z,13.07
2022-12-29T13:21:07.372Z,13.01
2022-12-29T13:27:08.674Z,13.00
2022-12-29T13:33:04.159Z,12.98
2022-12-29T13:38:38.480Z,12.99
2022-12-29T13:49:35.277Z,13.04
2022-12-29T13:54:48.132Z,13.05
2022-12-29T14:00:23.965Z,13.03
2022-12-29T14:05:32.901Z,13.03
2022-12-29T14:11:14.767Z,13.01
2022-12-29T14:16:46.940Z,12.98
2022-12-29T14:22:39.634Z,12.94
2022-12-29T14:28:46.188Z,12.88
2022-12-29T14:34:43.129Z,12.85
2022-12-29T14:40:05.697Z,12.80
2022-12-29T14:45:20.015Z,12.80
2022-12-29T14:51:28.903Z,12.81
2022-12-29T14:56:48.710Z,12.83
2022-12-29T15:02:41.263Z,12.83
2022-12-29T15:08:45.517Z,12.81
2022-12-29T15:13:49.925Z,12.77
2022-12-29T15:19:52.915Z,12.75
2022-12-29T15:24:59.429Z,12.75
2022-12-29T15:30:25.588Z,12.76
2022-12-29T15:49:40.117Z,12.67
2022-12-29T15:55:33.233Z,12.58
2022-12-29T16:01:31.855Z,12.51
2022-12-29T16:07:26.118Z,12.41
2022-12-29T16:12:57.291Z,12.29
2022-12-29T16:18:01.167Z,12.23
2022-12-29T16:23:31.010Z,12.20
2022-12-29T16:29:48.259Z,12.13
2022-12-29T16:50:32.707Z,11.92
2022-12-29T17:24:03.492Z,11.60
2022-12-29T17:30:36.268Z,11.52
2022-12-29T17:37:19.563Z,11.33
2022-12-29T17:42:49.788Z,11.17
2022-12-29T17:48:55.560Z,11.03
2022-12-29T17:55:18.366Z,10.86
2022-12-29T18:01:31.071Z,10.69
2022-12-29T18:14:29.739Z,10.31
2022-12-29T18:20:26.609Z,10.13
2022-12-29T18:26:10.892Z,10.08
2022-12-29T18:32:04.150Z,10.03
2022-12-29T18:44:27.758Z,9.70
2022-12-29T18:50:39.206Z,9.64
2022-12-29T19:04:21.446Z,9.76
2022-12-29T19:22:56.349Z,9.59
2022-12-29T19:35:00.119Z,9.78
2022-12-29T19:40:37.534Z,9.71
2022-12-29T19:46:20.208Z,9.59
2022-12-29T19:51:29.243Z,9.57
2022-12-29T19:57:03.003Z,9.69
2022-12-29T20:02:35.126Z,9.85
2022-12-29T20:08:52.409Z,9.96
2022-12-29T20:14:05.232Z,10.00
2022-12-29T20:19:41.854Z,9.95
2022-12-29T20:24:49.980Z,9.91
2022-12-29T20:30:25.459Z,10.00
2022-12-29T20:36:15.327Z,10.07
2022-12-29T20:41:28.025Z,10.01
2022-12-29T20:46:43.303Z,9.99
2022-12-29T20:52:11.164Z,10.04
2022-12-29T20:57:24.497Z,10.04
2022-12-29T21:02:34.107Z,10.09
2022-12-29T21:07:44.072Z,10.15
2022-12-29T21:12:54.031Z,10.17
2022-12-29T21:18:34.456Z,10.14
2022-12-29T21:29:45.004Z,10.19
2022-12-29T21:35:20.679Z,10.20
2022-12-29T21:40:24.009Z,10.12
2022-12-29T21:45:34.457Z,10.09
2022-12-29T21:51:01.682Z,10.09
2022-12-29T21:56:10.519Z,10.08
2022-12-29T22:01:33.356Z,10.07
2022-12-29T22:06:57.692Z,10.07
2022-12-29T22:12:27.017Z,10.09
2022-12-29T22:18:33.343Z,10.11
2022-12-29T22:24:35.648Z,10.05
2022-12-29T22:30:00.476Z,10.02
2022-12-29T22:35:43.211Z,10.03
2022-12-29T22:41:03.215Z,10.01
2022-12-29T22:46:34.255Z,9.94
2022-12-29T22:53:24.557Z,9.81
2022-12-29T22:58:05.827Z,9.80
2022-12-29T23:05:01.911Z,9.79
2022-12-29T23:16:07.502Z,9.80
2022-12-29T23:21:28.079Z,9.70
2022-12-29T23:27:20.762Z,9.66
2022-12-29T23:33:40.051Z,9.69
2022-12-29T23:40:12.147Z,9.61
2022-12-29T23:46:28.583Z,9.52
2022-12-29T23:52:12.669Z,9.56
2022-12-29T23:57:56.923Z,9.60
